Sandown, New Hampshire
Current Conditions -  °F | °C
As of 3:53 AM on Sunday 26 Oct 2014 (Local Time) from KMHT Reporting Station
Overcast Overcast  
Wind Chill: 48°   Ceiling: 13000
Heat Index: 48°   Visibility: 10mi
Dew Point: 42°   Wind: 0mph
Humidity: 80%   Direction: NA
Pressure: 29.4"   Gusts: NA
Location:  42.93°N, 71.19°W
Report Text: KMHT 260753Z 00000KT 10SM OVC130 09/06 A2940 RMK AO2 SLP968 T00890056
Loading
Personal Weather Stations






























Interactive Weather Map
Tropical Storm Tracking
New forecast layout! Learn more

10-Day Weather Forecast

Advertisements
Track Severe Weather on mobile